Time;durP1;ratioP1;P1;durP2;ratioP2;P2;SDS_P1;SDS_P2;PMS_P1;PMS_P2;Temp;Humidity;BMP_temperature;BMP_pressure;BME280_temperature;BME280_humidity;BME280_pressure;Samples;Min_cycle;Max_cycle;Signal;HPM_P1;HPM_P2
2022/01/30 00:01:25;;;;;;;35.35;5.40;;;6.70;99.90;;;;;;4834356;29;20041;-82
2022/01/30 00:03:51;;;;;;;30.45;4.38;;;6.70;99.90;;;;;;4836046;29;20026;-88
2022/01/30 00:06:17;;;;;;;32.40;4.07;;;6.70;99.90;;;;;;4809629;29;20335;-82
2022/01/30 00:08:44;;;;;;;28.63;4.00;;;6.80;99.90;;;;;;4821604;29;20034;-81
2022/01/30 00:11:17;;;;;;;28.85;3.40;;;6.80;99.90;;;;;;4823299;29;20071;-82
2022/01/30 00:13:44;;;;;;;32.72;4.40;;;6.70;99.90;;;;;;4839236;29;20377;-82
2022/01/30 00:16:11;;;;;;;20.38;3.08;;;6.70;99.90;;;;;;4825381;29;20474;-82
2022/01/30 00:19:01;;;;;;;30.63;4.28;;;6.60;99.90;;;;;;4824074;29;20160;-82
2022/01/30 00:24:06;;;;;;;27.45;3.95;;;6.50;99.90;;;;;;4839516;29;20041;-82
2022/01/30 00:26:37;;;;;;;33.03;3.80;;;6.50;99.90;;;;;;4822711;29;20049;-85
2022/01/30 00:29:04;;;;;;;33.70;4.20;;;6.40;99.90;;;;;;4821623;29;20042;-85
2022/01/30 00:31:32;;;;;;;30.63;4.75;;;6.50;99.90;;;;;;4839390;29;20045;-83
2022/01/30 00:33:59;;;;;;;35.58;4.47;;;6.40;99.90;;;;;;4822167;29;20060;-81
2022/01/30 00:36:26;;;;;;;25.25;4.63;;;6.40;99.90;;;;;;4821956;29;20052;-83
2022/01/30 00:38:53;;;;;;;27.13;3.90;;;6.40;99.90;;;;;;4823457;29;20478;-81
2022/01/30 00:41:19;;;;;;;40.35;4.88;;;6.40;99.90;;;;;;4806454;29;20033;-81
2022/01/30 00:43:45;;;;;;;28.90;4.18;;;6.40;99.90;;;;;;4834418;29;20038;-81
2022/01/30 00:46:12;;;;;;;33.85;3.97;;;6.30;99.90;;;;;;4842308;29;20042;-82
2022/01/30 00:48:38;;;;;;;22.67;3.67;;;6.30;99.90;;;;;;4825253;29;20038;-82
2022/01/30 00:51:04;;;;;;;33.50;3.58;;;6.30;99.90;;;;;;4821416;29;20041;-83
2022/01/30 00:53:31;;;;;;;34.08;4.13;;;6.30;99.90;;;;;;4825309;29;20051;-82
2022/01/30 00:55:57;;;;;;;27.73;3.92;;;6.30;99.90;;;;;;4824338;29;20060;-79
2022/01/30 09:20:04;;;;;;;34.95;4.30;;;6.90;99.90;;;;;;5118323;27;20104;-79
2022/01/30 09:22:30;;;;;;;34.22;4.72;;;7.00;99.90;;;;;;5081376;28;20046;-80
2022/01/30 09:24:57;;;;;;;30.92;3.53;;;7.10;99.90;;;;;;5074953;28;20028;-79
2022/01/30 09:27:23;;;;;;;26.90;3.95;;;7.20;99.90;;;;;;5046335;28;20490;-79
2022/01/30 09:29:50;;;;;;;25.73;3.80;;;7.10;99.90;;;;;;5044377;28;20036;-78
2022/01/30 09:32:17;;;;;;;24.38;2.75;;;7.10;99.90;;;;;;5061120;28;20032;-78
2022/01/30 09:34:44;;;;;;;33.50;4.25;;;7.10;99.90;;;;;;5057029;28;20079;-79
2022/01/30 09:37:11;;;;;;;27.88;3.35;;;7.10;99.90;;;;;;5073279;28;20028;-82
2022/01/30 09:39:37;;;;;;;30.58;3.97;;;7.10;99.90;;;;;;5082907;28;20036;-82
2022/01/30 09:42:05;;;;;;;27.10;4.03;;;7.10;99.90;;;;;;5075038;28;20032;-82
2022/01/30 09:44:36;;;;;;;34.50;4.47;;;7.20;99.90;;;;;;5056560;28;20024;-82
2022/01/30 09:47:03;;;;;;;26.15;4.57;;;7.40;99.90;;;;;;5075804;28;20374;-82
2022/01/30 09:49:29;;;;;;;35.25;5.75;;;7.60;99.90;;;;;;5064486;28;20039;-83
2022/01/30 09:51:56;;;;;;;30.88;4.38;;;7.80;99.90;;;;;;5056357;28;20036;-83
2022/01/30 09:54:23;;;;;;;23.75;4.07;;;7.80;99.90;;;;;;5046222;28;20031;-82
2022/01/30 09:56:50;;;;;;;24.95;4.55;;;7.80;99.90;;;;;;5073977;28;20678;-82
2022/01/30 09:59:16;;;;;;;25.95;3.60;;;7.70;99.90;;;;;;5076483;28;20036;-82
2022/01/30 10:01:43;;;;;;;30.33;4.55;;;7.70;99.90;;;;;;5076913;28;20042;-78
2022/01/30 10:04:10;;;;;;;21.70;3.70;;;7.60;99.90;;;;;;5054243;28;20028;-82
2022/01/30 10:07:02;;;;;;;26.63;3.88;;;7.80;99.90;;;;;;5047569;28;20039;-82
2022/01/30 10:09:34;;;;;;;29.60;4.07;;;8.10;99.90;;;;;;5078753;28;20036;-83
2022/01/30 10:12:15;;;;;;;28.00;4.10;;;8.30;99.90;;;;;;5075578;28;20032;-82
2022/01/30 10:15:07;;;;;;;33.97;6.82;;;8.40;99.90;;;;;;5059407;28;20036;-82
2022/01/30 10:17:48;;;;;;;31.63;4.50;;;8.50;99.90;;;;;;5061615;28;20031;-81
2022/01/30 10:20:19;;;;;;;27.90;5.00;;;8.50;99.90;;;;;;5093516;28;20028;-82
2022/01/30 10:22:48;;;;;;;28.10;4.90;;;8.50;99.90;;;;;;5060072;28;20025;-82
2022/01/30 10:25:26;;;;;;;34.40;5.35;;;8.50;99.90;;;;;;5066038;28;20031;-81
2022/01/30 10:28:20;;;;;;;31.17;4.60;;;8.50;99.90;;;;;;5062759;28;20052;-81
2022/01/30 10:30:48;;;;;;;28.20;3.60;;;8.50;99.90;;;;;;5082695;28;20030;-82
2022/01/30 10:33:16;;;;;;;28.98;5.00;;;8.40;99.90;;;;;;5031120;28;20359;-79
2022/01/30 10:35:55;;;;;;;41.63;5.30;;;8.30;99.90;;;;;;5047486;28;20039;-79
2022/01/30 10:38:25;;;;;;;31.13;4.00;;;8.30;99.90;;;;;;5067858;28;20035;-78
2022/01/30 10:41:10;;;;;;;29.88;4.38;;;8.40;99.90;;;;;;5047139;28;20061;-78
2022/01/30 10:44:00;;;;;;;30.48;5.68;;;8.50;99.90;;;;;;5063357;28;20032;-78
2022/01/30 10:46:31;;;;;;;23.48;4.05;;;8.40;99.90;;;;;;5040592;28;20491;-78
2022/01/30 10:49:06;;;;;;;24.75;3.45;;;8.30;99.90;;;;;;5051047;28;20032;-78
2022/01/30 10:51:33;;;;;;;21.58;3.60;;;8.40;99.90;;;;;;5039882;28;20032;-79
2022/01/30 10:54:08;;;;;;;30.15;3.88;;;8.80;99.90;;;;;;5061894;28;20059;-79
2022/01/30 10:56:36;;;;;;;26.08;3.90;;;9.20;99.90;;;;;;5076767;28;20028;-80
2022/01/30 10:59:19;;;;;;;30.85;4.53;;;9.60;99.90;;;;;;5047060;28;20032;-80
2022/01/30 11:01:49;;;;;;;36.85;4.55;;;9.70;99.90;;;;;;5060452;28;20403;-79
2022/01/30 11:04:27;;;;;;;28.83;4.97;;;9.50;99.90;;;;;;5042815;28;20020;-78
2022/01/30 11:06:54;;;;;;;38.28;6.18;;;9.40;99.90;;;;;;5030884;28;20035;-79
2022/01/30 11:09:28;;;;;;;21.63;4.25;;;9.50;99.90;;;;;;5062440;28;20024;-80
2022/01/30 11:12:03;;;;;;;24.63;4.05;;;9.50;99.90;;;;;;5041996;28;20036;-78
2022/01/30 11:14:37;;;;;;;31.95;4.10;;;9.70;99.90;;;;;;5015476;28;20387;-79
2022/01/30 11:17:08;;;;;;;64.53;22.27;;;9.70;99.90;;;;;;5075953;28;20037;-78
2022/01/30 11:19:38;;;;;;;23.67;5.97;;;9.60;99.90;;;;;;5016505;28;20047;-79
2022/01/30 11:22:12;;;;;;;36.42;5.38;;;9.60;99.90;;;;;;5044126;28;20047;-79
2022/01/30 11:24:51;;;;;;;28.08;4.10;;;9.70;99.90;;;;;;5041428;28;20040;-79
2022/01/30 11:27:20;;;;;;;25.17;4.70;;;9.60;99.90;;;;;;5042782;28;20086;-77
2022/01/30 11:29:48;;;;;;;27.77;5.10;;;9.60;99.90;;;;;;5045553;28;20039;-77
2022/01/30 11:32:16;;;;;;;27.10;3.90;;;9.50;99.90;;;;;;5043344;28;20028;-80
2022/01/30 11:34:43;;;;;;;32.28;5.18;;;9.40;99.90;;;;;;5075816;28;20032;-78
2022/01/30 11:37:13;;;;;;;29.20;4.88;;;9.40;99.90;;;;;;5042488;28;20043;-79
2022/01/30 11:39:45;;;;;;;28.98;3.95;;;9.50;99.90;;;;;;5045823;28;20142;-78
2022/01/30 11:42:18;;;;;;;22.98;3.45;;;9.40;99.90;;;;;;5057643;28;20057;-80
2022/01/30 11:44:47;;;;;;;22.95;3.88;;;9.40;99.90;;;;;;5044618;28;20023;-79
2022/01/30 11:47:13;;;;;;;37.28;5.80;;;9.40;99.90;;;;;;5059465;28;20039;-80
2022/01/30 11:49:50;;;;;;;23.15;3.17;;;9.40;99.90;;;;;;5042879;28;20044;-77
2022/01/30 11:52:18;;;;;;;27.85;4.35;;;9.30;99.90;;;;;;5073840;28;20016;-80
2022/01/30 11:54:50;;;;;;;27.73;4.45;;;9.20;99.90;;;;;;5058473;28;20031;-79
2022/01/30 11:57:22;;;;;;;26.92;4.82;;;9.30;99.90;;;;;;5028119;28;20027;-77
2022/01/30 11:59:54;;;;;;;29.17;5.35;;;9.30;99.90;;;;;;5030598;28;20032;-79
2022/01/30 12:02:35;;;;;;;28.77;4.38;;;9.40;99.90;;;;;;5043222;28;20033;-80
2022/01/30 12:05:08;;;;;;;23.23;3.40;;;9.50;99.90;;;;;;5063393;28;20036;-81
2022/01/30 12:07:34;;;;;;;23.63;3.65;;;9.70;99.90;;;;;;5058441;28;20044;-82
2022/01/30 12:10:32;;;;;;;29.73;4.18;;;9.80;99.90;;;;;;5030868;28;20043;-79
2022/01/30 12:13:04;;;;;;;29.48;4.88;;;9.90;99.90;;;;;;5018984;28;20483;-79
2022/01/30 12:15:45;;;;;;;25.63;4.40;;;9.80;99.90;;;;;;5031888;28;20043;-80
2022/01/30 12:18:12;;;;;;;25.20;3.55;;;9.70;99.90;;;;;;5064319;28;20410;-79
2022/01/30 12:20:59;;;;;;;27.33;3.60;;;9.70;99.90;;;;;;5046657;28;20044;-79
2022/01/30 12:23:30;;;;;;;27.15;4.63;;;9.70;99.90;;;;;;5043368;28;20415;-80
2022/01/30 12:26:05;;;;;;;31.83;4.30;;;9.60;99.90;;;;;;5041950;28;20047;-79
2022/01/30 12:28:52;;;;;;;29.42;5.35;;;9.50;99.90;;;;;;5044254;28;20047;-79
2022/01/30 12:31:38;;;;;;;26.67;6.15;;;9.30;99.90;;;;;;5011294;28;20041;-77
2022/01/30 12:34:09;;;;;;;22.08;4.00;;;9.30;99.90;;;;;;5074574;28;20370;-77
2022/01/30 12:36:50;;;;;;;26.48;4.72;;;9.30;99.90;;;;;;5057589;28;20020;-76
2022/01/30 12:39:23;;;;;;;32.72;4.53;;;9.40;99.90;;;;;;5070521;28;20024;-76
2022/01/30 12:41:52;;;;;;;27.25;4.72;;;9.60;99.90;;;;;;5027719;28;20028;-79
2022/01/30 12:44:20;;;;;;;22.33;3.67;;;9.60;99.90;;;;;;5043381;28;20103;-76
2022/01/30 12:46:50;;;;;;;25.15;3.33;;;9.60;99.90;;;;;;5058460;28;20490;-76
2022/01/30 12:49:20;;;;;;;27.17;3.90;;;9.70;99.90;;;;;;5027156;28;20020;-76
2022/01/30 12:52:01;;;;;;;25.83;5.18;;;9.80;99.90;;;;;;5053842;28;20039;-76
2022/01/30 12:54:40;;;;;;;23.77;4.57;;;9.70;99.90;;;;;;5054643;28;20029;-76
2022/01/30 12:57:08;;;;;;;30.50;4.75;;;9.50;99.90;;;;;;5017517;28;20083;-76
2022/01/30 12:59:34;;;;;;;27.08;4.50;;;9.20;99.90;;;;;;5059744;28;20103;-76
2022/01/30 13:02:10;;;;;;;24.35;3.63;;;9.00;99.90;;;;;;5022787;28;20029;-76
2022/01/30 13:04:37;;;;;;;24.00;3.88;;;8.90;99.90;;;;;;5026196;28;20035;-76
2022/01/30 13:07:04;;;;;;;23.85;3.50;;;8.80;99.90;;;;;;5055222;28;20031;-76
2022/01/30 13:09:31;;;;;;;21.45;3.45;;;8.70;99.90;;;;;;5041658;28;20024;-76
2022/01/30 13:11:59;;;;;;;25.35;3.47;;;8.70;99.90;;;;;;5053232;28;20016;-77
2022/01/30 13:14:33;;;;;;;29.17;3.90;;;8.60;99.90;;;;;;5036451;28;20028;-76
2022/01/30 13:17:00;;;;;;;36.50;5.25;;;8.60;99.90;;;;;;5042317;28;20467;-77
2022/01/30 13:19:34;;;;;;;22.08;3.72;;;8.70;99.90;;;;;;5057817;28;20055;-76
2022/01/30 13:22:09;;;;;;;25.20;4.30;;;8.70;99.90;;;;;;5058501;28;20035;-76
2022/01/30 13:24:37;;;;;;;25.73;3.75;;;8.70;99.90;;;;;;5041305;28;20028;-76
2022/01/30 13:27:08;;;;;;;32.75;5.43;;;8.70;99.90;;;;;;5047440;28;20024;-79
2022/01/30 13:29:36;;;;;;;26.77;3.97;;;8.70;99.90;;;;;;5064193;28;20581;-80
2022/01/30 13:32:09;;;;;;;25.17;3.92;;;8.60;99.90;;;;;;5042216;28;20289;-80
2022/01/30 13:34:36;;;;;;;31.55;4.15;;;8.60;99.90;;;;;;5046304;28;20031;-79
2022/01/30 13:37:11;;;;;;;34.47;5.20;;;8.60;99.90;;;;;;5044544;28;20363;-83
2022/01/30 13:39:52;;;;;;;29.05;4.00;;;8.50;99.90;;;;;;5045354;28;20032;-79
2022/01/30 13:47:57;;;;;;;21.13;3.10;;;8.30;99.90;;;;;;5041336;28;20408;-80
2022/01/30 13:50:32;;;;;;;25.42;3.97;;;8.20;99.90;;;;;;5061187;28;20394;-80
2022/01/30 13:53:22;;;;;;;18.55;3.10;;;8.20;99.90;;;;;;5060400;28;20024;-81
2022/01/30 13:56:07;;;;;;;22.23;4.03;;;8.10;99.90;;;;;;5059388;28;20494;-81
2022/01/30 13:58:44;;;;;;;25.65;4.00;;;8.10;99.90;;;;;;5047244;28;20489;-80
2022/01/30 14:01:22;;;;;;;24.98;4.18;;;8.10;99.90;;;;;;5077512;28;20046;-80
2022/01/30 14:03:50;;;;;;;22.60;3.42;;;8.10;99.90;;;;;;5042956;28;20023;-81
2022/01/30 14:06:26;;;;;;;17.45;2.88;;;8.10;99.90;;;;;;5043866;28;20024;-80
2022/01/30 14:08:58;;;;;;;23.95;3.60;;;8.20;99.90;;;;;;5077753;28;20020;-80
2022/01/30 14:11:36;;;;;;;24.85;3.58;;;8.20;99.90;;;;;;5034713;28;20036;-80
2022/01/30 14:14:12;;;;;;;24.55;3.03;;;8.30;99.90;;;;;;5047076;28;20028;-80
2022/01/30 14:16:42;;;;;;;24.98;3.42;;;8.30;99.90;;;;;;5035754;28;20044;-79
2022/01/30 14:19:27;;;;;;;23.48;3.20;;;8.30;99.90;;;;;;5050356;28;20048;-77
2022/01/30 14:21:56;;;;;;;20.17;3.25;;;8.40;99.90;;;;;;5064135;28;20024;-82
2022/01/30 14:24:29;;;;;;;23.42;4.28;;;8.50;99.90;;;;;;5045315;28;20347;-80
2022/01/30 14:27:09;;;;;;;;;;;8.60;99.90;;;;;;5075512;28;22696;-77
2022/01/30 14:29:36;;;;;;;31.50;4.38;;;8.60;99.90;;;;;;5054671;28;19907;-76
2022/01/30 14:32:10;;;;;;;20.85;3.50;;;8.60;99.90;;;;;;5022392;28;20032;-77
2022/01/30 14:34:36;;;;;;;27.80;4.75;;;8.50;99.90;;;;;;5042866;28;20046;-76
2022/01/30 14:37:04;;;;;;;26.65;3.58;;;8.50;99.90;;;;;;5026892;28;21826;-77
2022/01/30 14:39:33;;;;;;;26.25;4.28;;;8.50;99.90;;;;;;5027734;28;20696;-77
2022/01/30 14:42:02;;;;;;;23.67;4.68;;;8.50;99.90;;;;;;5076269;28;20020;-77
2022/01/30 14:44:29;;;;;;;29.55;4.22;;;8.50;99.90;;;;;;5058125;28;20114;-76
2022/01/30 14:46:55;;;;;;;16.08;3.13;;;8.50;99.90;;;;;;5041232;28;20414;-80
2022/01/30 14:49:22;;;;;;;29.33;3.70;;;8.40;99.90;;;;;;5031543;28;20040;-80
2022/01/30 14:51:49;;;;;;;30.77;4.28;;;8.30;99.90;;;;;;5031180;28;20035;-83
2022/01/30 14:54:17;;;;;;;21.75;3.92;;;8.30;99.90;;;;;;5041722;28;20036;-79
2022/01/30 14:56:43;;;;;;;26.00;3.90;;;8.20;99.90;;;;;;5071435;28;20028;-77
2022/01/30 14:59:10;;;;;;;25.52;4.20;;;8.20;99.90;;;;;;5041244;28;20040;-77
2022/01/30 15:01:37;;;;;;;29.23;4.60;;;8.20;99.90;;;;;;5024666;28;20466;-80
2022/01/30 15:04:03;;;;;;;29.90;4.07;;;8.20;99.90;;;;;;5044500;28;20031;-79
2022/01/30 15:06:30;;;;;;;29.10;5.43;;;8.30;99.90;;;;;;5024845;28;20035;-78
2022/01/30 15:08:56;;;;;;;24.73;4.78;;;8.30;99.90;;;;;;5056921;28;20024;-79
2022/01/30 15:11:23;;;;;;;30.33;4.70;;;8.30;99.90;;;;;;5027361;28;20043;-83
2022/01/30 15:13:50;;;;;;;27.25;3.90;;;8.30;99.90;;;;;;5058401;28;20035;-77
2022/01/30 15:16:30;;;;;;;23.83;3.35;;;8.20;99.90;;;;;;5061337;28;20035;-77
2022/01/30 15:18:56;;;;;;;26.50;3.70;;;8.20;99.90;;;;;;5050435;28;20044;-82
2022/01/30 15:21:23;;;;;;;25.30;3.97;;;8.20;99.90;;;;;;5014771;28;20043;-80
2022/01/30 15:23:50;;;;;;;21.25;4.13;;;8.10;99.90;;;;;;5046880;28;21064;-80
2022/01/30 15:26:16;;;;;;;23.13;3.03;;;8.10;99.90;;;;;;5048636;28;20031;-80
2022/01/30 15:28:42;;;;;;;30.60;4.20;;;8.00;99.90;;;;;;5032948;28;20028;-77
2022/01/30 15:31:09;;;;;;;24.50;3.78;;;7.90;99.90;;;;;;5054937;28;20028;-80
2022/01/30 15:33:35;;;;;;;21.25;3.50;;;7.80;99.90;;;;;;5043840;28;20051;-81
2022/01/30 15:36:02;;;;;;;24.30;4.22;;;7.70;99.90;;;;;;5031805;28;20624;-79
2022/01/30 15:38:29;;;;;;;21.80;2.58;;;7.60;99.90;;;;;;5017963;28;20054;-80
2022/01/30 15:40:56;;;;;;;20.77;3.15;;;7.60;99.90;;;;;;5019227;28;20043;-80
2022/01/30 15:43:25;;;;;;;16.33;3.08;;;7.50;99.90;;;;;;5049723;28;20028;-78
2022/01/30 15:51:22;;;;;;;22.35;3.90;;;7.10;99.90;;;;;;5061346;28;20674;-80
2022/01/30 15:53:48;;;;;;;24.73;3.53;;;7.10;99.90;;;;;;5045511;28;20032;-76
2022/01/30 15:56:15;;;;;;;23.08;3.40;;;7.00;99.90;;;;;;5057913;28;20039;-77
2022/01/30 15:58:41;;;;;;;20.98;3.03;;;6.90;99.90;;;;;;5053753;28;20509;-77
2022/01/30 16:01:08;;;;;;;23.75;3.50;;;6.80;99.90;;;;;;5057999;28;20040;-79
2022/01/30 16:03:34;;;;;;;25.80;4.00;;;6.70;99.90;;;;;;5045247;28;20509;-80
2022/01/30 16:06:02;;;;;;;24.38;3.22;;;6.70;99.90;;;;;;5036514;28;20502;-80
2022/01/30 16:08:38;;;;;;;18.02;3.28;;;6.60;99.90;;;;;;5027965;28;20033;-77
2022/01/30 16:16:29;;;;;;;21.70;2.90;;;6.60;99.90;;;;;;5057677;28;20626;-78
2022/01/30 16:18:56;;;;;;;22.77;3.13;;;6.60;99.90;;;;;;5046561;28;20056;-78
2022/01/30 16:21:22;;;;;;;22.42;3.25;;;6.50;99.90;;;;;;5051108;28;20609;-78
2022/01/30 16:23:49;;;;;;;24.27;3.60;;;6.50;99.90;;;;;;5006372;28;20661;-77
2022/01/30 16:26:16;;;;;;;21.77;2.72;;;6.40;99.90;;;;;;5022893;28;20051;-78
2022/01/30 16:28:43;;;;;;;18.42;2.10;;;6.30;99.90;;;;;;5035285;28;20029;-80
2022/01/30 16:31:10;;;;;;;14.43;2.13;;;6.20;99.90;;;;;;5003794;28;21064;-79
2022/01/30 16:33:38;;;;;;;9.68;1.92;;;6.10;99.90;;;;;;5007301;28;20537;-80
2022/01/30 16:36:05;;;;;;;18.52;2.42;;;6.10;99.90;;;;;;5005338;28;20041;-79
2022/01/30 16:38:31;;;;;;;19.95;2.30;;;6.00;99.90;;;;;;5002283;28;20058;-80
2022/01/30 16:40:58;;;;;;;25.65;2.90;;;5.90;99.90;;;;;;5035667;28;20407;-79
2022/01/30 16:43:30;;;;;;;16.73;1.92;;;5.80;99.90;;;;;;5023070;28;20040;-79
2022/01/30 16:46:09;;;;;;;17.77;2.15;;;5.80;99.90;;;;;;5037440;28;20278;-79
2022/01/30 16:48:36;;;;;;;20.77;2.63;;;5.70;99.90;;;;;;5054637;28;20044;-83
2022/01/30 16:51:03;;;;;;;19.50;2.35;;;5.50;99.90;;;;;;5023893;28;20052;-84
2022/01/30 16:53:33;;;;;;;23.38;2.85;;;5.50;99.90;;;;;;5042705;28;21424;-78
2022/01/30 16:55:59;;;;;;;18.10;3.38;;;5.40;99.90;;;;;;5004457;28;21391;-78
2022/01/30 16:58:26;;;;;;;29.98;9.65;;;5.40;99.90;;;;;;5019207;28;20040;-79
2022/01/30 17:00:52;;;;;;;24.02;9.45;;;5.30;99.90;;;;;;5003909;28;20044;-78
2022/01/30 17:03:21;;;;;;;25.30;8.43;;;5.20;99.90;;;;;;5033288;28;20025;-80
2022/01/30 17:05:48;;;;;;;29.95;7.55;;;5.20;99.90;;;;;;5003822;28;20017;-76
2022/01/30 17:08:18;;;;;;;29.98;5.90;;;5.10;99.90;;;;;;5004144;28;20025;-77
2022/01/30 17:10:48;;;;;;;25.60;5.28;;;5.10;99.90;;;;;;5016490;28;20044;-79
2022/01/30 17:13:15;;;;;;;19.58;4.10;;;5.00;99.90;;;;;;5001442;28;20032;-78
2022/01/30 17:15:43;;;;;;;25.65;5.03;;;4.90;99.90;;;;;;4991081;28;20047;-79
2022/01/30 17:18:14;;;;;;;25.13;5.00;;;4.90;99.90;;;;;;4989161;28;20060;-79
2022/01/30 17:20:43;;;;;;;21.05;4.50;;;4.90;99.90;;;;;;5033997;28;20396;-79
2022/01/30 17:23:10;;;;;;;24.30;5.68;;;4.80;99.90;;;;;;5047134;28;20021;-79
2022/01/30 17:25:40;;;;;;;23.70;6.18;;;4.80;99.90;;;;;;5017999;28;20409;-78
2022/01/30 17:28:09;;;;;;;28.80;7.47;;;4.70;99.90;;;;;;4999242;28;20029;-79
2022/01/30 17:30:35;;;;;;;34.25;10.27;;;4.70;99.90;;;;;;5031178;28;20037;-79
2022/01/30 17:33:03;;;;;;;20.05;7.85;;;4.70;99.90;;;;;;5014354;28;20456;-79
2022/01/30 17:35:30;;;;;;;23.27;6.82;;;4.60;99.90;;;;;;5016632;28;20507;-78
2022/01/30 17:37:58;;;;;;;20.02;6.10;;;4.60;99.90;;;;;;5016794;28;20037;-78
2022/01/30 17:40:26;;;;;;;20.50;5.05;;;4.60;99.90;;;;;;5036638;28;20039;-78
2022/01/30 17:42:53;;;;;;;28.15;4.82;;;4.60;99.90;;;;;;5018380;28;20036;-78
2022/01/30 17:45:20;;;;;;;17.48;3.53;;;4.60;99.90;;;;;;5017013;28;20036;-78
2022/01/30 17:47:47;;;;;;;20.38;4.07;;;4.60;99.90;;;;;;5036974;28;20036;-78
2022/01/30 17:50:16;;;;;;;24.92;5.65;;;4.60;99.90;;;;;;5052792;28;20036;-78
2022/01/30 17:52:43;;;;;;;21.40;5.83;;;4.50;99.90;;;;;;5032985;28;20562;-77
2022/01/30 17:55:10;;;;;;;20.52;6.05;;;4.50;99.90;;;;;;5021444;28;20025;-79
2022/01/30 17:57:38;;;;;;;27.88;8.45;;;4.50;99.90;;;;;;5017156;28;20469;-78
2022/01/30 18:00:09;;;;;;;32.23;9.30;;;4.50;99.90;;;;;;5018733;28;20045;-78
2022/01/30 18:02:37;;;;;;;28.40;8.27;;;4.40;99.90;;;;;;5021074;28;20037;-80
2022/01/30 18:05:07;;;;;;;20.80;5.30;;;4.40;99.90;;;;;;5020572;28;20396;-81
2022/01/30 18:07:34;;;;;;;19.10;4.25;;;4.40;99.90;;;;;;5023822;28;20024;-80
2022/01/30 18:10:01;;;;;;;16.25;4.60;;;4.40;99.90;;;;;;5025300;28;20742;-81
2022/01/30 18:12:28;;;;;;;20.48;4.70;;;4.30;99.90;;;;;;4990099;28;20119;-77
2022/01/30 18:14:54;;;;;;;23.65;3.17;;;4.30;99.90;;;;;;5021937;28;20033;-81
2022/01/30 18:17:21;;;;;;;17.97;3.33;;;4.30;99.90;;;;;;5008612;28;20040;-77
2022/01/30 18:19:50;;;;;;;20.20;2.97;;;4.30;99.90;;;;;;5025047;28;20049;-88
2022/01/30 18:22:23;;;;;;;16.42;3.05;;;4.30;99.90;;;;;;5031272;28;20400;-84
2022/01/30 18:24:51;;;;;;;16.95;3.15;;;4.30;99.90;;;;;;5027127;28;20025;-84
2022/01/30 18:27:18;;;;;;;27.92;4.10;;;4.30;99.90;;;;;;5041142;28;20040;-84
2022/01/30 18:29:45;;;;;;;14.65;2.90;;;4.40;99.90;;;;;;5010286;28;20036;-84
2022/01/30 18:32:12;;;;;;;16.75;2.70;;;4.40;99.90;;;;;;5026397;28;20048;-84
2022/01/30 18:34:40;;;;;;;24.25;3.70;;;4.40;99.90;;;;;;5043144;28;20040;-84
2022/01/30 18:37:15;;;;;;;25.42;4.13;;;4.40;99.90;;;;;;5041972;28;20037;-84
2022/01/30 18:42:43;;;;;;;24.08;4.15;;;4.50;99.90;;;;;;4991397;28;20033;-85
2022/01/30 18:45:12;;;;;;;20.60;3.60;;;4.50;99.90;;;;;;5010344;28;20048;-84
2022/01/30 18:47:39;;;;;;;17.27;3.15;;;4.50;99.90;;;;;;5010207;28;20040;-82
2022/01/30 18:50:06;;;;;;;26.77;5.35;;;4.50;99.90;;;;;;5040208;28;20029;-83
2022/01/30 18:52:32;;;;;;;22.52;5.25;;;4.60;99.90;;;;;;5022912;28;20045;-77
2022/01/30 18:55:00;;;;;;;25.35;4.72;;;4.60;99.90;;;;;;5040458;28;20049;-82
2022/01/30 18:57:26;;;;;;;24.98;5.07;;;4.60;99.90;;;;;;5024908;28;20041;-81
2022/01/30 18:59:53;;;;;;;30.77;5.18;;;4.60;99.90;;;;;;5026267;28;20048;-83
2022/01/30 19:02:20;;;;;;;21.40;3.97;;;4.70;99.90;;;;;;5024708;28;20047;-80
2022/01/30 19:04:46;;;;;;;23.33;3.83;;;4.70;99.90;;;;;;5026131;28;20476;-82
2022/01/30 19:07:14;;;;;;;36.88;10.13;;;4.70;99.90;;;;;;5019929;28;20124;-81
2022/01/30 19:09:41;;;;;;;36.53;8.15;;;4.80;99.90;;;;;;5038161;28;20372;-82
2022/01/30 19:12:08;;;;;;;28.05;8.30;;;4.80;99.90;;;;;;5036863;28;20037;-81
2022/01/30 19:14:38;;;;;;;28.90;6.63;;;4.80;99.90;;;;;;5039689;28;20388;-81
2022/01/30 19:17:05;;;;;;;23.50;5.90;;;4.90;99.90;;;;;;5036764;28;20040;-81
2022/01/30 19:19:32;;;;;;;30.67;6.32;;;4.90;99.90;;;;;;5024256;28;20051;-81
2022/01/30 19:21:59;;;;;;;35.95;6.88;;;4.90;99.90;;;;;;5052949;28;20040;-78
2022/01/30 19:24:25;;;;;;;24.67;5.35;;;4.90;99.90;;;;;;5022860;28;20033;-76
2022/01/30 19:26:51;;;;;;;15.82;4.93;;;5.00;99.90;;;;;;5035845;28;20048;-76
2022/01/30 19:29:18;;;;;;;28.15;4.35;;;5.00;99.90;;;;;;5022907;28;20037;-76
2022/01/30 19:31:44;;;;;;;25.40;5.35;;;5.10;99.90;;;;;;5034004;28;20048;-77
2022/01/30 19:34:11;;;;;;;23.90;4.28;;;5.10;99.90;;;;;;5002917;28;20038;-78
2022/01/30 19:36:37;;;;;;;19.30;3.53;;;5.10;99.90;;;;;;5003637;28;20449;-77
2022/01/30 19:39:04;;;;;;;24.63;4.10;;;5.10;99.90;;;;;;5007291;28;20412;-77
2022/01/30 19:41:33;;;;;;;20.65;4.22;;;5.10;99.90;;;;;;5034362;28;20045;-77
2022/01/30 19:44:00;;;;;;;25.40;4.75;;;5.10;99.90;;;;;;5035472;28;20045;-79
2022/01/30 19:46:26;;;;;;;17.52;3.65;;;5.10;99.90;;;;;;5020537;28;20542;-78
2022/01/30 19:48:53;;;;;;;29.55;4.88;;;5.10;99.90;;;;;;5005182;28;20480;-78
2022/01/30 19:51:19;;;;;;;32.85;4.95;;;5.10;99.90;;;;;;5003262;28;20219;-80
2022/01/30 19:53:46;;;;;;;33.97;6.05;;;5.10;99.90;;;;;;5036463;28;20037;-78
2022/01/30 19:56:13;;;;;;;19.85;4.15;;;5.10;99.90;;;;;;5037153;28;20029;-78
2022/01/30 19:58:40;;;;;;;23.27;4.07;;;5.10;99.90;;;;;;5020132;28;20045;-80
2022/01/30 20:01:06;;;;;;;19.33;3.90;;;5.10;99.90;;;;;;5008213;28;20049;-79
2022/01/30 20:03:33;;;;;;;20.35;4.47;;;5.00;99.90;;;;;;5050536;28;20025;-76
2022/01/30 20:05:59;;;;;;;24.48;3.67;;;5.00;99.90;;;;;;5021548;28;20040;-78
2022/01/30 20:08:26;;;;;;;24.20;3.90;;;5.00;99.90;;;;;;5023254;28;20683;-78
2022/01/30 20:10:53;;;;;;;17.55;3.30;;;4.90;99.90;;;;;;5022609;28;20029;-78
2022/01/30 20:13:20;;;;;;;18.77;3.20;;;4.90;99.90;;;;;;5002801;28;20060;-78
2022/01/30 20:15:49;;;;;;;17.67;3.13;;;4.90;99.90;;;;;;5022231;28;20032;-78
2022/01/30 20:18:16;;;;;;;17.23;3.37;;;4.90;99.90;;;;;;5019756;28;20500;-78
2022/01/30 20:20:44;;;;;;;16.25;3.08;;;4.90;99.90;;;;;;5034937;28;20041;-78
2022/01/30 20:23:13;;;;;;;18.27;2.95;;;4.90;99.90;;;;;;5037019;28;20048;-77
2022/01/30 20:25:41;;;;;;;19.38;3.25;;;4.90;99.90;;;;;;5021603;28;20041;-77
2022/01/30 20:28:08;;;;;;;15.47;2.87;;;4.90;99.90;;;;;;5033384;28;20017;-78
2022/01/30 20:30:35;;;;;;;18.88;2.53;;;4.90;99.90;;;;;;5019822;28;20040;-79
2022/01/30 20:33:01;;;;;;;17.77;2.63;;;5.00;99.90;;;;;;5034927;28;20036;-79
2022/01/30 20:35:28;;;;;;;19.98;2.78;;;5.00;99.90;;;;;;5015588;28;20392;-78
2022/01/30 20:37:54;;;;;;;18.08;3.08;;;5.00;99.90;;;;;;5002538;28;20030;-79
2022/01/30 20:40:21;;;;;;;19.88;2.90;;;5.00;99.90;;;;;;5025927;28;20036;-78
2022/01/30 20:42:48;;;;;;;18.73;2.95;;;5.00;99.90;;;;;;4989666;28;20040;-78
2022/01/30 20:45:14;;;;;;;16.67;3.25;;;5.00;99.90;;;;;;5017583;28;20025;-80
2022/01/30 20:47:43;;;;;;;12.32;2.72;;;5.10;99.90;;;;;;5004241;28;20046;-79
2022/01/30 20:50:11;;;;;;;22.15;3.20;;;5.10;99.90;;;;;;5036155;28;20044;-79
2022/01/30 20:52:38;;;;;;;12.60;2.50;;;5.20;99.90;;;;;;5018907;28;20022;-79
2022/01/30 20:55:06;;;;;;;18.98;3.03;;;5.20;99.90;;;;;;5002172;28;20388;-80
2022/01/30 20:57:33;;;;;;;17.10;3.55;;;5.20;99.90;;;;;;5021466;28;20491;-79
2022/01/30 21:00:00;;;;;;;27.45;5.18;;;5.20;99.90;;;;;;5005789;28;20033;-80
2022/01/30 21:02:29;;;;;;;18.70;3.30;;;5.30;99.90;;;;;;5018989;28;20034;-78
2022/01/30 21:04:55;;;;;;;17.67;3.60;;;5.30;99.90;;;;;;5035487;28;20421;-79
2022/01/30 21:07:22;;;;;;;18.83;3.38;;;5.30;99.90;;;;;;5031695;28;20025;-79
2022/01/30 21:09:52;;;;;;;15.98;3.10;;;5.30;99.90;;;;;;4999228;28;20047;-79
2022/01/30 21:12:21;;;;;;;20.52;3.40;;;5.30;99.90;;;;;;5037135;28;20043;-80
2022/01/30 21:14:47;;;;;;;20.17;3.80;;;5.30;99.90;;;;;;5022269;28;20172;-79
2022/01/30 21:17:14;;;;;;;30.33;7.50;;;5.30;99.90;;;;;;5006562;28;20033;-81
2022/01/30 21:19:40;;;;;;;28.15;4.93;;;5.30;99.90;;;;;;5019189;28;20129;-80
2022/01/30 21:22:07;;;;;;;18.67;3.05;;;5.30;99.90;;;;;;5017098;28;20038;-79
2022/01/30 21:24:33;;;;;;;16.07;2.70;;;5.20;99.90;;;;;;5033077;28;20029;-80
2022/01/30 21:27:00;;;;;;;18.20;3.30;;;5.30;99.90;;;;;;5002551;28;20044;-80
2022/01/30 21:29:27;;;;;;;22.70;3.10;;;5.20;99.90;;;;;;5038688;28;20392;-80
2022/01/30 21:31:54;;;;;;;15.98;2.55;;;5.20;99.90;;;;;;5037363;28;20056;-79
2022/01/30 21:34:21;;;;;;;17.83;2.85;;;5.20;99.90;;;;;;5021942;28;20049;-80
2022/01/30 21:36:48;;;;;;;15.85;2.75;;;5.20;99.90;;;;;;5007988;28;20046;-80
2022/01/30 21:39:14;;;;;;;18.08;3.53;;;5.20;99.90;;;;;;5025613;28;20085;-80
2022/01/30 21:41:41;;;;;;;12.20;1.97;;;5.20;99.90;;;;;;5007625;28;20155;-78
2022/01/30 21:44:07;;;;;;;20.77;2.40;;;5.30;99.90;;;;;;5007381;28;20052;-79